Time;durP1;ratioP1;P1;durP2;ratioP2;P2;SDS_P1;SDS_P2;PMS_P1;PMS_P2;Temp;Humidity;BMP_temperature;BMP_pressure;BME280_temperature;BME280_humidity;BME280_pressure;Samples;Min_cycle;Max_cycle;Signal;HPM_P1;HPM_P2
2024/01/29 00:01:50;;;;;;;8.17;4.23;;;1.70;99.90;;;;;;5220551;28;20768;-51
2024/01/29 00:04:21;;;;;;;8.73;4.20;;;1.70;99.90;;;;;;5223509;28;20211;-50
2024/01/29 00:06:51;;;;;;;16.57;4.50;;;1.70;99.90;;;;;;5222720;28;20484;-50
2024/01/29 00:09:23;;;;;;;14.33;4.33;;;1.70;99.90;;;;;;5227055;28;20201;-51
2024/01/29 00:11:54;;;;;;;8.33;4.47;;;1.70;99.90;;;;;;5223150;28;20261;-51
2024/01/29 00:14:24;;;;;;;8.67;4.93;;;1.70;99.90;;;;;;5219382;28;20971;-53
2024/01/29 00:16:55;;;;;;;21.63;5.03;;;1.70;99.90;;;;;;5205438;28;20186;-52
2024/01/29 00:19:26;;;;;;;7.40;3.97;;;1.60;99.90;;;;;;5220166;28;20652;-51
2024/01/29 00:21:56;;;;;;;6.90;3.77;;;1.60;99.90;;;;;;5225371;28;20186;-52
2024/01/29 00:24:27;;;;;;;7.37;3.70;;;1.60;99.90;;;;;;5214224;28;20207;-52
2024/01/29 00:26:57;;;;;;;10.93;4.63;;;1.70;99.90;;;;;;5206936;28;20187;-51
2024/01/29 00:29:28;;;;;;;9.43;4.60;;;1.60;99.90;;;;;;5223368;28;20183;-51
2024/01/29 00:31:59;;;;;;;8.93;4.80;;;1.60;99.90;;;;;;5218196;28;20645;-51
2024/01/29 00:34:29;;;;;;;9.30;4.77;;;1.60;99.90;;;;;;5221004;28;20292;-52
2024/01/29 00:37:01;;;;;;;10.17;3.63;;;1.60;99.90;;;;;;5222639;28;20218;-52
2024/01/29 00:39:33;;;;;;;9.80;3.70;;;1.60;99.90;;;;;;5207730;28;20183;-50
2024/01/29 00:42:04;;;;;;;9.97;3.93;;;1.70;99.90;;;;;;5216121;28;20450;-51
2024/01/29 00:44:34;;;;;;;15.03;4.50;;;1.70;99.90;;;;;;5198027;28;20453;-50
2024/01/29 00:47:06;;;;;;;5.07;3.00;;;1.70;99.90;;;;;;5223964;28;20201;-52
2024/01/29 00:49:37;;;;;;;11.40;4.90;;;1.70;99.90;;;;;;5212533;28;20215;-51
2024/01/29 00:52:08;;;;;;;4.93;3.57;;;1.70;99.90;;;;;;5217191;28;20512;-50
2024/01/29 00:54:40;;;;;;;14.90;3.97;;;1.70;99.90;;;;;;5223281;28;20344;-51
2024/01/29 00:57:11;;;;;;;9.93;4.37;;;1.80;99.90;;;;;;5212184;28;20180;-51
2024/01/29 00:59:43;;;;;;;6.73;3.53;;;1.80;99.90;;;;;;5214898;28;20443;-52
2024/01/29 01:02:13;;;;;;;7.57;4.17;;;1.70;99.90;;;;;;5225917;28;20429;-51
2024/01/29 01:04:44;;;;;;;7.90;3.53;;;1.70;99.90;;;;;;5224955;28;20469;-50
2024/01/29 01:07:15;;;;;;;10.93;4.20;;;1.80;99.90;;;;;;5226572;28;20229;-51
2024/01/29 01:09:45;;;;;;;4.93;3.90;;;1.70;99.90;;;;;;5217182;28;20186;-53
2024/01/29 01:12:16;;;;;;;17.50;3.80;;;1.70;99.90;;;;;;5217041;28;20230;-52
2024/01/29 01:14:46;;;;;;;11.00;5.23;;;1.60;99.90;;;;;;5222075;28;20921;-51
2024/01/29 01:17:17;;;;;;;6.33;3.47;;;1.60;99.90;;;;;;5223607;28;20179;-51
2024/01/29 01:19:48;;;;;;;9.13;4.60;;;1.50;99.90;;;;;;5219466;28;20187;-51
2024/01/29 01:22:18;;;;;;;6.53;4.03;;;1.60;99.90;;;;;;5223060;28;20179;-52
2024/01/29 01:24:49;;;;;;;11.33;4.60;;;1.50;99.90;;;;;;5217251;28;20199;-51
2024/01/29 01:27:19;;;;;;;8.87;3.07;;;1.50;99.90;;;;;;5220185;28;20210;-50
2024/01/29 01:29:50;;;;;;;4.80;3.87;;;1.60;99.90;;;;;;5217934;28;20555;-52
2024/01/29 01:32:21;;;;;;;6.10;4.10;;;1.60;99.90;;;;;;5223477;28;20202;-50
2024/01/29 01:34:51;;;;;;;5.87;3.67;;;1.60;99.90;;;;;;5219559;28;20286;-50
2024/01/29 01:37:22;;;;;;;15.60;4.10;;;1.70;99.90;;;;;;5216734;28;20197;-51
2024/01/29 01:39:53;;;;;;;5.70;4.23;;;1.80;99.90;;;;;;5213515;28;20188;-50
2024/01/29 01:42:24;;;;;;;17.20;5.17;;;1.80;99.90;;;;;;5221410;28;20187;-50
2024/01/29 01:44:54;;;;;;;9.40;3.77;;;1.80;99.90;;;;;;5216144;28;20229;-50
2024/01/29 01:47:26;;;;;;;9.27;4.13;;;1.80;99.90;;;;;;5219410;28;20482;-51
2024/01/29 01:49:57;;;;;;;8.03;4.30;;;1.60;99.90;;;;;;5220800;28;20179;-51
2024/01/29 01:52:28;;;;;;;12.13;4.47;;;1.60;99.90;;;;;;5217109;28;20468;-51
2024/01/29 01:54:59;;;;;;;6.20;3.23;;;1.60;99.90;;;;;;5214585;28;20465;-52
2024/01/29 01:57:30;;;;;;;8.70;4.30;;;1.60;99.90;;;;;;5220691;28;20554;-51
2024/01/29 02:00:02;;;;;;;9.30;3.97;;;1.60;99.90;;;;;;5201277;28;20442;-53
2024/01/29 02:02:33;;;;;;;9.50;4.77;;;1.50;99.90;;;;;;5216795;28;20432;-51
2024/01/29 02:05:04;;;;;;;16.77;5.43;;;1.50;99.90;;;;;;5221056;28;20453;-51
2024/01/29 02:07:36;;;;;;;6.77;4.50;;;1.60;99.90;;;;;;5216613;28;20874;-50
2024/01/29 02:10:08;;;;;;;5.37;4.17;;;1.50;99.90;;;;;;5223322;28;20456;-51
2024/01/29 02:12:38;;;;;;;7.80;4.23;;;1.50;99.90;;;;;;5200933;28;20476;-51
2024/01/29 02:15:09;;;;;;;4.80;4.20;;;1.50;99.90;;;;;;5215734;28;20457;-50
2024/01/29 02:17:40;;;;;;;13.43;5.00;;;1.30;99.90;;;;;;5213799;28;20179;-52
2024/01/29 02:20:11;;;;;;;8.80;4.20;;;1.30;99.90;;;;;;5216722;28;20636;-52
2024/01/29 02:22:45;;;;;;;10.20;4.87;;;1.30;99.90;;;;;;5223870;28;20593;-50
2024/01/29 02:25:15;;;;;;;11.57;4.60;;;1.40;99.90;;;;;;5223673;28;20458;-52
2024/01/29 02:27:46;;;;;;;6.93;4.30;;;1.30;99.90;;;;;;5227041;28;20857;-51
2024/01/29 02:30:17;;;;;;;4.80;4.20;;;1.20;99.90;;;;;;5227510;28;20535;-51
2024/01/29 02:32:47;;;;;;;11.90;4.13;;;1.40;99.90;;;;;;5221115;28;20258;-53
2024/01/29 02:35:18;;;;;;;8.00;4.47;;;1.30;99.90;;;;;;5222687;28;20205;-52
2024/01/29 02:37:49;;;;;;;10.67;5.23;;;1.30;99.90;;;;;;5224858;28;20209;-51
2024/01/29 02:40:20;;;;;;;8.70;4.80;;;1.30;99.90;;;;;;5225064;28;20190;-52
2024/01/29 02:42:50;;;;;;;7.73;4.17;;;1.20;99.90;;;;;;5223362;28;20211;-52
2024/01/29 02:45:21;;;;;;;12.00;5.17;;;1.30;99.90;;;;;;5212770;28;20212;-50
2024/01/29 02:47:51;;;;;;;7.47;4.50;;;1.30;99.90;;;;;;5214540;28;20176;-50
2024/01/29 02:50:26;;;;;;;6.67;3.70;;;1.30;99.90;;;;;;5225333;28;20192;-52
2024/01/29 02:53:00;;;;;;;8.80;4.97;;;1.30;99.90;;;;;;5214869;28;20210;-51
2024/01/29 02:55:30;;;;;;;15.23;5.13;;;1.30;99.90;;;;;;5227449;28;20476;-52
2024/01/29 02:58:01;;;;;;;12.50;5.13;;;1.30;99.90;;;;;;5226834;28;20525;-50
2024/01/29 03:00:31;;;;;;;4.47;3.83;;;1.30;99.90;;;;;;5218495;28;20215;-51
2024/01/29 03:03:02;;;;;;;14.77;4.90;;;1.30;99.90;;;;;;5222604;28;20210;-52
2024/01/29 03:05:33;;;;;;;8.00;3.83;;;1.30;99.90;;;;;;5224686;28;20211;-52
2024/01/29 03:08:04;;;;;;;16.33;5.10;;;1.30;99.90;;;;;;5206847;28;20261;-50
2024/01/29 03:10:34;;;;;;;7.63;3.97;;;1.20;99.90;;;;;;5207990;28;20683;-52
2024/01/29 03:13:05;;;;;;;11.10;5.10;;;1.30;99.90;;;;;;5223783;28;20472;-51
2024/01/29 03:15:36;;;;;;;8.73;4.80;;;1.30;99.90;;;;;;5213270;28;20260;-52
2024/01/29 03:18:07;;;;;;;6.03;4.33;;;1.30;99.90;;;;;;5213338;28;20525;-52
2024/01/29 03:20:37;;;;;;;9.83;4.67;;;1.20;99.90;;;;;;5223756;28;20179;-52
2024/01/29 03:23:09;;;;;;;12.90;5.10;;;1.20;99.90;;;;;;5211574;28;20241;-51
2024/01/29 03:25:41;;;;;;;14.73;5.50;;;1.20;99.90;;;;;;5222253;28;20199;-51
2024/01/29 03:28:11;;;;;;;15.60;4.60;;;1.20;99.90;;;;;;5225632;28;20440;-51
2024/01/29 03:30:42;;;;;;;11.10;5.17;;;1.20;99.90;;;;;;5213805;28;20784;-51
2024/01/29 03:33:12;;;;;;;10.40;5.83;;;1.10;99.90;;;;;;5216059;28;20210;-51
2024/01/29 03:35:43;;;;;;;9.57;4.97;;;1.10;99.90;;;;;;5224522;28;20225;-51
2024/01/29 03:38:14;;;;;;;16.37;5.70;;;1.10;99.90;;;;;;5224296;28;20277;-51
2024/01/29 03:40:46;;;;;;;10.70;4.97;;;1.00;99.90;;;;;;5221459;28;20648;-51
2024/01/29 03:43:17;;;;;;;9.00;5.50;;;1.00;99.90;;;;;;5220781;28;20254;-52
2024/01/29 03:45:47;;;;;;;8.43;4.23;;;1.00;99.90;;;;;;5221785;28;20871;-50
2024/01/29 03:48:18;;;;;;;8.83;4.70;;;1.00;99.90;;;;;;5213690;28;20221;-53
2024/01/29 03:50:49;;;;;;;14.97;5.80;;;0.90;99.90;;;;;;5217285;28;20189;-50
2024/01/29 03:53:19;;;;;;;12.03;5.30;;;0.90;99.90;;;;;;5203141;28;20218;-50
2024/01/29 03:55:52;;;;;;;7.70;5.03;;;0.90;99.90;;;;;;5224075;28;20233;-49
2024/01/29 03:58:22;;;;;;;7.93;4.57;;;0.80;99.90;;;;;;5218575;28;20657;-51
2024/01/29 04:00:53;;;;;;;17.57;5.90;;;0.80;99.90;;;;;;5221843;28;20527;-51
2024/01/29 04:03:24;;;;;;;8.60;4.50;;;0.80;99.90;;;;;;5221395;28;20188;-51
2024/01/29 04:05:55;;;;;;;13.57;5.00;;;0.80;99.90;;;;;;5224203;28;20452;-50
2024/01/29 04:08:26;;;;;;;9.97;5.23;;;0.80;99.90;;;;;;5224900;28;20821;-51
2024/01/29 04:10:56;;;;;;;8.60;4.77;;;0.70;99.90;;;;;;5215579;28;20205;-51
2024/01/29 04:13:27;;;;;;;10.10;5.77;;;0.70;99.90;;;;;;5218356;28;20214;-51
2024/01/29 04:15:57;;;;;;;14.03;5.00;;;0.70;99.90;;;;;;5221330;28;20287;-50
2024/01/29 04:18:28;;;;;;;12.43;5.20;;;0.70;99.90;;;;;;5215275;28;20557;-50
2024/01/29 04:20:59;;;;;;;14.70;5.57;;;0.80;99.90;;;;;;5221454;28;20213;-53
2024/01/29 04:23:30;;;;;;;8.77;5.63;;;0.70;99.90;;;;;;5224456;28;20737;-49
2024/01/29 04:26:00;;;;;;;8.37;4.53;;;0.70;99.90;;;;;;5223612;28;20293;-50
2024/01/29 04:28:31;;;;;;;13.90;5.70;;;0.70;99.90;;;;;;5218400;28;20536;-50
2024/01/29 04:31:02;;;;;;;9.90;5.30;;;0.70;99.90;;;;;;5224655;28;20175;-51
2024/01/29 04:33:32;;;;;;;15.53;6.20;;;0.70;99.90;;;;;;5219963;28;20670;-50
2024/01/29 04:36:03;;;;;;;11.13;5.37;;;0.60;99.90;;;;;;5218941;28;20237;-49
2024/01/29 04:38:34;;;;;;;20.60;5.10;;;0.60;99.90;;;;;;5214983;28;20183;-51
2024/01/29 04:41:04;;;;;;;13.03;5.30;;;0.60;99.90;;;;;;5225602;28;20180;-50
2024/01/29 04:43:35;;;;;;;15.47;5.47;;;0.60;99.90;;;;;;5220677;28;20309;-51
2024/01/29 04:46:06;;;;;;;13.47;6.00;;;0.60;99.90;;;;;;5223754;28;20203;-50
2024/01/29 04:48:37;;;;;;;9.03;5.27;;;0.60;99.90;;;;;;5194174;28;20199;-51
2024/01/29 04:51:08;;;;;;;16.00;5.33;;;0.50;99.90;;;;;;5216256;28;20204;-52
2024/01/29 04:53:39;;;;;;;7.30;5.70;;;0.60;99.90;;;;;;5218701;28;20564;-51
2024/01/29 04:56:10;;;;;;;8.67;4.97;;;0.50;99.90;;;;;;5214469;28;20530;-51
2024/01/29 04:58:41;;;;;;;18.80;5.90;;;0.50;99.90;;;;;;5210508;28;20431;-51
2024/01/29 05:01:11;;;;;;;8.43;4.87;;;0.50;99.90;;;;;;5212473;28;20607;-51
2024/01/29 05:03:42;;;;;;;11.40;4.70;;;0.50;99.90;;;;;;5224495;28;20190;-51
2024/01/29 05:06:13;;;;;;;16.80;5.60;;;0.50;99.90;;;;;;5222723;28;20183;-51
2024/01/29 05:08:45;;;;;;;13.67;6.00;;;0.60;99.90;;;;;;5222860;28;20437;-53
2024/01/29 05:11:15;;;;;;;9.53;5.10;;;0.60;99.90;;;;;;5223157;28;21004;-51
2024/01/29 05:13:46;;;;;;;10.57;5.57;;;0.60;99.90;;;;;;5219115;28;20476;-52
2024/01/29 05:16:16;;;;;;;13.40;5.30;;;0.60;99.90;;;;;;5220357;28;20279;-51
2024/01/29 05:18:49;;;;;;;15.63;6.40;;;0.60;99.90;;;;;;5215145;28;20274;-52
2024/01/29 05:21:20;;;;;;;9.17;4.67;;;0.60;99.90;;;;;;5224884;28;20172;-52
2024/01/29 05:23:50;;;;;;;9.93;5.67;;;0.70;99.90;;;;;;5216195;28;20775;-51
2024/01/29 05:26:21;;;;;;;16.47;6.20;;;0.60;99.90;;;;;;5223620;28;20183;-49
2024/01/29 05:28:51;;;;;;;11.30;6.00;;;0.60;99.90;;;;;;5222744;28;20689;-50
2024/01/29 05:31:22;;;;;;;6.70;4.67;;;0.60;99.90;;;;;;5220386;28;20184;-50
2024/01/29 05:33:53;;;;;;;16.80;6.10;;;0.60;99.90;;;;;;5196371;28;20196;-50
2024/01/29 05:36:23;;;;;;;8.90;5.93;;;0.50;99.90;;;;;;5220868;28;20234;-50
2024/01/29 05:38:54;;;;;;;17.17;6.00;;;0.60;99.90;;;;;;5222230;28;20228;-51
2024/01/29 05:41:24;;;;;;;20.97;5.60;;;0.50;99.90;;;;;;5220467;28;20261;-50
2024/01/29 05:43:55;;;;;;;21.57;5.70;;;0.50;99.90;;;;;;5224108;28;20186;-49
2024/01/29 05:46:26;;;;;;;13.40;6.03;;;0.60;99.90;;;;;;5220517;28;20187;-50
2024/01/29 05:48:56;;;;;;;15.30;6.20;;;0.60;99.90;;;;;;5220588;28;20546;-50
2024/01/29 05:51:27;;;;;;;11.90;5.10;;;0.60;99.90;;;;;;5214510;28;20680;-51
2024/01/29 05:53:58;;;;;;;10.63;5.00;;;0.60;99.90;;;;;;5222393;28;20172;-49
2024/01/29 05:56:29;;;;;;;8.77;5.60;;;0.60;99.90;;;;;;5222860;28;20636;-50
2024/01/29 05:59:00;;;;;;;8.17;5.63;;;0.60;99.90;;;;;;5223345;28;20547;-51
2024/01/29 06:01:30;;;;;;;11.90;6.43;;;0.60;99.90;;;;;;5223716;28;20189;-50
2024/01/29 06:04:01;;;;;;;15.20;5.93;;;0.50;99.90;;;;;;5220325;28;20192;-50
2024/01/29 06:06:31;;;;;;;16.10;6.70;;;0.60;99.90;;;;;;5223620;28;20198;-51
2024/01/29 06:09:02;;;;;;;14.83;5.67;;;0.60;99.90;;;;;;5225730;28;20177;-50
2024/01/29 06:11:34;;;;;;;9.10;6.10;;;0.60;99.90;;;;;;5223930;28;20225;-51
2024/01/29 06:14:04;;;;;;;16.43;6.07;;;0.60;99.90;;;;;;5226282;28;20199;-52
2024/01/29 06:16:35;;;;;;;10.33;5.80;;;0.60;99.90;;;;;;5225864;28;20441;-50
2024/01/29 06:19:05;;;;;;;10.30;5.23;;;0.60;99.90;;;;;;5225329;28;20175;-50
2024/01/29 06:21:36;;;;;;;15.83;5.97;;;0.60;99.90;;;;;;5223870;28;20642;-48
2024/01/29 06:24:07;;;;;;;20.40;4.90;;;0.70;99.90;;;;;;5227091;28;21692;-52
2024/01/29 06:26:37;;;;;;;8.77;5.60;;;0.70;99.90;;;;;;5224382;28;20192;-49
2024/01/29 06:29:08;;;;;;;13.70;5.90;;;0.60;99.90;;;;;;5218486;28;20183;-51
2024/01/29 06:31:40;;;;;;;12.50;5.40;;;0.70;99.90;;;;;;5219860;28;20277;-49
2024/01/29 06:34:10;;;;;;;17.37;5.80;;;0.70;99.90;;;;;;5225023;28;20487;-51
2024/01/29 06:36:41;;;;;;;13.77;5.27;;;0.70;99.90;;;;;;5219955;28;20850;-49
2024/01/29 06:39:11;;;;;;;12.97;6.73;;;0.70;99.90;;;;;;5226094;28;20281;-51
2024/01/29 06:41:42;;;;;;;15.30;5.57;;;0.70;99.90;;;;;;5224996;28;20723;-50
2024/01/29 06:44:12;;;;;;;13.03;5.60;;;0.80;99.90;;;;;;5222441;28;20199;-50
2024/01/29 06:46:43;;;;;;;7.47;4.80;;;0.80;99.90;;;;;;5225416;28;20262;-50
2024/01/29 06:49:26;;;;;;;10.97;5.67;;;0.80;99.90;;;;;;5217930;28;20608;-53
2024/01/29 06:51:57;;;;;;;15.80;5.37;;;0.80;99.90;;;;;;5216063;28;20279;-52
2024/01/29 06:54:28;;;;;;;13.50;6.13;;;0.80;99.90;;;;;;5221774;28;20450;-52
2024/01/29 06:56:58;;;;;;;11.90;5.13;;;0.80;99.90;;;;;;5239930;28;20428;-51
2024/01/29 06:59:29;;;;;;;11.13;4.50;;;0.80;99.90;;;;;;5226316;28;20602;-51
2024/01/29 07:02:00;;;;;;;14.07;5.27;;;0.90;99.90;;;;;;5218706;28;20232;-52
2024/01/29 07:04:31;;;;;;;10.80;5.53;;;0.90;99.90;;;;;;5201018;28;20204;-51
2024/01/29 07:07:02;;;;;;;12.07;6.43;;;0.90;99.90;;;;;;5216582;28;20442;-51
2024/01/29 07:09:32;;;;;;;12.13;6.13;;;0.90;99.90;;;;;;5224132;28;20722;-53
2024/01/29 07:12:04;;;;;;;21.57;6.40;;;0.90;99.90;;;;;;5220637;28;20277;-51
2024/01/29 07:14:35;;;;;;;10.20;5.13;;;1.00;99.90;;;;;;5222289;28;20392;-50
2024/01/29 07:17:06;;;;;;;8.10;4.73;;;1.00;99.90;;;;;;5220357;28;20445;-50
2024/01/29 07:19:36;;;;;;;10.90;5.40;;;1.10;99.90;;;;;;5222934;28;20179;-54
2024/01/29 07:22:08;;;;;;;8.17;5.40;;;1.10;99.90;;;;;;5216454;28;20240;-51
2024/01/29 07:24:39;;;;;;;7.80;5.00;;;1.10;99.90;;;;;;5225705;28;20281;-52
2024/01/29 07:27:09;;;;;;;11.27;4.27;;;1.10;99.90;;;;;;5203284;28;20537;-51
2024/01/29 07:29:40;;;;;;;11.90;5.53;;;1.30;99.90;;;;;;5225744;28;20236;-50
2024/01/29 07:32:10;;;;;;;11.90;5.33;;;1.40;99.90;;;;;;5227434;28;20199;-50
2024/01/29 07:34:41;;;;;;;15.80;6.03;;;1.50;99.90;;;;;;5231890;28;20229;-50
2024/01/29 07:37:11;;;;;;;17.70;7.70;;;1.60;99.90;;;;;;5231245;28;20175;-51
2024/01/29 07:39:42;;;;;;;22.53;7.90;;;1.70;99.90;;;;;;5221461;28;20179;-53
2024/01/29 07:42:13;;;;;;;15.30;4.50;;;1.80;99.90;;;;;;5232721;28;20186;-51
2024/01/29 07:44:44;;;;;;;6.20;5.60;;;1.80;99.90;;;;;;5224821;28;20217;-50
2024/01/29 07:47:15;;;;;;;7.30;4.30;;;2.00;99.90;;;;;;5222828;28;20429;-53
2024/01/29 07:49:45;;;;;;;10.30;4.80;;;2.20;99.90;;;;;;5215954;28;20702;-50
2024/01/29 07:52:16;;;;;;;15.97;6.10;;;2.20;99.90;;;;;;5209046;28;20230;-51
2024/01/29 07:54:46;;;;;;;13.17;7.57;;;2.20;99.90;;;;;;5225750;28;20218;-50
2024/01/29 07:57:17;;;;;;;15.13;7.07;;;2.30;99.90;;;;;;5222246;28;20283;-52
2024/01/29 07:59:48;;;;;;;7.03;5.30;;;2.30;99.90;;;;;;5225630;28;20593;-50
2024/01/29 08:02:18;;;;;;;9.97;5.67;;;2.50;99.90;;;;;;5223684;28;20202;-49
2024/01/29 08:04:49;;;;;;;16.17;5.30;;;2.50;99.90;;;;;;5222250;28;20302;-50
2024/01/29 08:07:20;;;;;;;19.30;7.17;;;2.60;99.90;;;;;;5223306;28;20517;-50
2024/01/29 08:09:50;;;;;;;8.50;5.30;;;2.70;99.90;;;;;;5222813;28;20187;-51
2024/01/29 08:12:21;;;;;;;7.07;3.70;;;2.70;99.90;;;;;;5225907;28;20248;-51
2024/01/29 08:14:51;;;;;;;8.50;5.07;;;2.70;99.90;;;;;;5223019;28;20293;-50
2024/01/29 08:17:22;;;;;;;17.70;5.27;;;2.80;99.90;;;;;;5203084;28;20598;-53
2024/01/29 08:19:52;;;;;;;7.93;4.50;;;2.90;99.90;;;;;;5214307;28;20175;-49
2024/01/29 08:22:23;;;;;;;11.13;5.13;;;3.00;99.90;;;;;;5224126;28;20179;-50
2024/01/29 08:24:54;;;;;;;7.53;3.90;;;3.00;99.90;;;;;;5217427;28;20217;-51
2024/01/29 08:27:27;;;;;;;8.37;3.70;;;3.10;99.90;;;;;;5222014;28;20186;-52
2024/01/29 08:29:58;;;;;;;13.10;5.30;;;3.20;99.90;;;;;;5224482;28;20579;-51
2024/01/29 08:32:28;;;;;;;14.50;5.30;;;3.30;99.90;;;;;;5218108;28;20553;-51
2024/01/29 08:34:59;;;;;;;11.73;5.47;;;3.30;99.90;;;;;;5212218;28;20541;-51
2024/01/29 08:37:30;;;;;;;7.53;4.43;;;3.40;99.90;;;;;;5217378;28;20261;-51
2024/01/29 08:40:00;;;;;;;9.30;5.10;;;3.50;99.90;;;;;;5223696;28;20176;-49
2024/01/29 08:42:31;;;;;;;8.00;4.83;;;3.60;99.90;;;;;;5223652;28;20191;-50
2024/01/29 08:45:03;;;;;;;14.77;5.17;;;3.60;99.90;;;;;;5221321;28;20210;-50
2024/01/29 08:47:34;;;;;;;8.27;4.90;;;3.70;99.90;;;;;;5216419;28;20180;-50
2024/01/29 08:50:05;;;;;;;4.70;4.30;;;3.80;99.90;;;;;;5217340;28;20805;-50
2024/01/29 08:52:36;;;;;;;9.40;5.37;;;3.90;99.90;;;;;;5216444;28;20473;-51
2024/01/29 08:55:07;;;;;;;9.57;4.87;;;3.90;99.90;;;;;;5222115;28;20458;-51
2024/01/29 08:57:38;;;;;;;6.77;4.63;;;4.00;99.90;;;;;;5222373;28;20721;-51
2024/01/29 09:00:09;;;;;;;10.57;4.90;;;4.10;99.90;;;;;;5223444;28;20428;-53
2024/01/29 09:02:41;;;;;;;5.83;4.87;;;4.10;99.90;;;;;;5217636;28;20186;-49
2024/01/29 09:05:11;;;;;;;6.33;3.60;;;4.20;99.90;;;;;;5221125;28;20975;-50
2024/01/29 09:07:42;;;;;;;15.37;4.20;;;3.90;99.90;;;;;;5216088;28;20439;-50
2024/01/29 09:10:13;;;;;;;14.77;4.43;;;4.30;99.90;;;;;;5218511;28;20187;-50
2024/01/29 09:12:43;;;;;;;8.77;4.53;;;4.50;99.90;;;;;;5219101;28;20214;-49
2024/01/29 09:15:14;;;;;;;12.63;4.80;;;4.60;99.90;;;;;;5223610;28;20283;-51
2024/01/29 09:17:45;;;;;;;10.20;4.20;;;4.80;99.90;;;;;;5223473;28;20196;-51
2024/01/29 09:20:16;;;;;;;10.37;4.40;;;4.60;99.90;;;;;;5223536;28;20180;-52
2024/01/29 09:22:47;;;;;;;6.57;4.57;;;4.70;99.90;;;;;;5217053;28;20190;-53
2024/01/29 09:25:17;;;;;;;10.17;5.57;;;4.80;99.90;;;;;;5223934;28;21025;-54
2024/01/29 09:27:48;;;;;;;6.77;4.17;;;5.00;99.90;;;;;;5226571;28;20196;-53
2024/01/29 09:30:19;;;;;;;9.40;5.70;;;5.00;99.90;;;;;;5221631;28;20205;-50
2024/01/29 09:32:50;;;;;;;9.17;5.00;;;5.00;99.90;;;;;;5218058;28;20315;-52
2024/01/29 09:35:20;;;;;;;4.47;4.07;;;5.00;99.90;;;;;;5219149;28;20204;-50
2024/01/29 09:37:51;;;;;;;6.70;4.90;;;5.00;99.90;;;;;;5209048;28;20183;-50
2024/01/29 09:40:22;;;;;;;6.37;4.10;;;5.20;99.90;;;;;;5211565;28;20183;-50
2024/01/29 09:42:54;;;;;;;9.20;4.87;;;5.30;99.90;;;;;;5204847;28;20281;-52
2024/01/29 09:45:26;;;;;;;11.80;4.40;;;5.30;99.90;;;;;;5223059;28;20220;-52
2024/01/29 09:47:58;;;;;;;7.23;4.20;;;5.40;99.90;;;;;;5206635;28;20452;-52
2024/01/29 09:50:30;;;;;;;7.23;3.97;;;5.40;99.90;;;;;;5219565;28;20465;-50
2024/01/29 09:53:02;;;;;;;8.17;3.87;;;5.50;99.90;;;;;;5217856;28;20559;-50
2024/01/29 09:55:33;;;;;;;15.50;4.53;;;5.70;99.80;;;;;;5221472;28;20512;-49
2024/01/29 09:58:04;;;;;;;4.83;4.00;;;5.60;99.70;;;;;;5223051;28;20478;-50
2024/01/29 10:00:34;;;;;;;5.10;4.00;;;5.80;99.40;;;;;;5226198;28;20218;-50
2024/01/29 10:03:07;;;;;;;7.80;4.00;;;5.90;98.70;;;;;;5219679;28;20466;-51
2024/01/29 10:05:39;;;;;;;6.53;4.30;;;5.90;99.00;;;;;;5208329;28;20211;-50
2024/01/29 10:08:11;;;;;;;5.23;3.77;;;5.90;98.50;;;;;;5221922;28;20498;-51
2024/01/29 10:10:42;;;;;;;12.03;4.57;;;6.00;98.30;;;;;;5221999;28;20441;-51
2024/01/29 10:13:13;;;;;;;5.73;3.60;;;6.10;98.00;;;;;;5220703;28;20464;-50
2024/01/29 10:15:44;;;;;;;4.40;4.00;;;6.10;97.60;;;;;;5227106;28;20640;-51
2024/01/29 10:18:16;;;;;;;5.13;3.80;;;6.20;97.50;;;;;;5216768;28;20483;-54
2024/01/29 10:20:46;;;;;;;7.87;4.37;;;6.30;97.20;;;;;;5219866;28;20437;-52
2024/01/29 10:23:17;;;;;;;7.60;3.90;;;6.40;96.20;;;;;;5223021;28;20449;-52
2024/01/29 10:25:55;;;;;;;8.60;4.10;;;6.50;95.90;;;;;;5222165;28;20233;-51
2024/01/29 10:28:29;;;;;;;14.37;5.87;;;6.60;95.60;;;;;;5227147;28;20679;-51
2024/01/29 10:30:59;;;;;;;12.03;4.10;;;6.70;95.50;;;;;;5223096;28;20827;-52
2024/01/29 10:33:30;;;;;;;8.43;5.10;;;6.70;95.00;;;;;;5220349;28;20500;-50
2024/01/29 10:36:02;;;;;;;5.70;4.20;;;7.00;94.90;;;;;;5218349;28;20200;-48
2024/01/29 10:38:37;;;;;;;8.33;3.53;;;7.00;93.80;;;;;;5222184;28;20198;-52
2024/01/29 10:41:11;;;;;;;9.77;4.17;;;7.00;94.90;;;;;;5223524;28;20480;-51
2024/01/29 10:43:46;;;;;;;13.13;4.33;;;7.20;93.60;;;;;;5227035;28;20433;-50
2024/01/29 10:46:22;;;;;;;9.57;4.23;;;7.40;92.00;;;;;;5226950;28;20426;-52
2024/01/29 10:48:53;;;;;;;7.03;4.53;;;7.30;91.80;;;;;;5227510;28;20436;-50
2024/01/29 10:51:25;;;;;;;9.80;4.30;;;7.40;91.10;;;;;;5222610;28;20515;-51
2024/01/29 10:53:56;;;;;;;6.20;3.90;;;7.60;90.60;;;;;;5227353;28;20437;-50
2024/01/29 10:56:28;;;;;;;9.50;4.00;;;7.70;90.10;;;;;;5222013;28;20883;-50
2024/01/29 10:59:00;;;;;;;14.13;4.67;;;7.80;89.50;;;;;;5223568;28;20434;-51
2024/01/29 11:01:32;;;;;;;6.83;3.80;;;7.90;88.80;;;;;;5210049;28;20772;-51
2024/01/29 11:04:03;;;;;;;6.43;3.37;;;7.80;87.70;;;;;;5228333;28;20426;-51
2024/01/29 11:06:45;;;;;;;4.87;3.87;;;7.90;86.30;;;;;;5227914;28;20506;-51
2024/01/29 11:09:18;;;;;;;5.27;3.20;;;8.00;81.90;;;;;;5237358;23;20448;-51
2024/01/29 11:11:51;;;;;;;9.70;3.63;;;8.00;80.60;;;;;;5241955;28;20554;-51
2024/01/29 11:14:22;;;;;;;3.07;2.77;;;8.10;78.40;;;;;;5229170;28;20472;-51
2024/01/29 11:16:53;;;;;;;6.10;3.40;;;8.30;76.90;;;;;;5240542;28;20878;-50
2024/01/29 11:19:24;;;;;;;7.67;5.03;;;8.30;76.40;;;;;;5225863;28;20446;-51
2024/01/29 11:21:58;;;;;;;3.87;2.90;;;8.50;75.00;;;;;;5224393;28;20702;-51
2024/01/29 11:24:31;;;;;;;7.73;3.13;;;8.40;73.60;;;;;;5243561;28;20531;-51
2024/01/29 11:27:12;;;;;;;4.47;3.50;;;8.50;73.60;;;;;;5236814;28;20445;-51
2024/01/29 11:29:44;;;;;;;5.83;3.47;;;8.60;73.00;;;;;;5245432;28;20452;-51
2024/01/29 11:32:16;;;;;;;11.53;4.70;;;8.60;71.90;;;;;;5244562;28;20463;-51
2024/01/29 11:34:47;;;;;;;10.10;3.90;;;8.60;70.40;;;;;;5221056;28;20571;-52
2024/01/29 11:37:29;;;;;;;3.00;2.70;;;8.80;70.70;;;;;;5221669;28;20488;-52
2024/01/29 11:40:00;;;;;;;6.07;4.10;;;8.70;70.50;;;;;;5240361;28;20784;-50
2024/01/29 11:42:30;;;;;;;8.07;4.07;;;8.80;69.40;;;;;;5240891;28;20536;-51
2024/01/29 11:45:02;;;;;;;13.40;6.50;;;8.90;68.60;;;;;;5245680;28;20178;-51
2024/01/29 11:47:33;;;;;;;8.27;3.40;;;9.20;67.40;;;;;;5243322;28;20846;-51
2024/01/29 11:50:04;;;;;;;5.60;3.17;;;9.10;66.70;;;;;;5241886;28;20481;-51
2024/01/29 11:52:34;;;;;;;8.20;4.13;;;9.10;66.70;;;;;;5238192;28;20548;-51
2024/01/29 11:55:06;;;;;;;3.60;3.30;;;9.20;67.20;;;;;;5221802;28;20424;-50
2024/01/29 11:57:37;;;;;;;3.70;2.23;;;9.30;65.40;;;;;;5242811;28;20182;-50
2024/01/29 12:00:08;;;;;;;8.93;2.60;;;9.30;65.80;;;;;;5220130;28;20456;-50
2024/01/29 12:02:39;;;;;;;11.37;3.03;;;9.30;65.60;;;;;;5223402;28;20213;-51
2024/01/29 12:05:13;;;;;;;4.33;2.67;;;9.40;65.50;;;;;;5242811;28;20464;-51
2024/01/29 12:07:48;;;;;;;6.53;2.90;;;9.60;62.90;;;;;;5228043;28;20179;-51
2024/01/29 12:10:18;;;;;;;6.60;2.73;;;9.60;63.10;;;;;;5225049;28;20463;-50
2024/01/29 12:12:49;;;;;;;5.27;2.60;;;9.80;62.00;;;;;;5238991;28;20464;-51
2024/01/29 12:15:20;;;;;;;2.93;2.33;;;9.70;62.50;;;;;;5241378;28;20213;-51
2024/01/29 12:17:51;;;;;;;3.60;2.37;;;9.70;62.70;;;;;;5224557;28;20291;-49
2024/01/29 12:20:22;;;;;;;3.87;3.10;;;9.80;60.80;;;;;;5243005;28;20192;-52
2024/01/29 12:22:53;;;;;;;4.83;2.70;;;9.80;60.50;;;;;;5227396;28;20949;-53
2024/01/29 12:25:23;;;;;;;5.60;3.03;;;10.00;59.80;;;;;;5236313;28;20436;-48
2024/01/29 12:28:07;;;;;;;4.50;2.60;;;9.90;58.40;;;;;;5228878;28;20186;-49
2024/01/29 12:30:39;;;;;;;4.40;3.30;;;9.90;59.00;;;;;;5232411;28;20205;-53
2024/01/29 12:33:21;;;;;;;2.90;2.70;;;9.90;58.40;;;;;;5239745;28;20464;-51
2024/01/29 12:35:51;;;;;;;3.30;3.10;;;9.90;58.20;;;;;;5238258;28;20440;-51
2024/01/29 12:38:22;;;;;;;4.40;3.20;;;9.80;58.40;;;;;;5241991;28;20904;-52
2024/01/29 12:40:57;;;;;;;5.93;3.80;;;9.80;58.70;;;;;;5240889;28;20712;-52
2024/01/29 12:43:28;;;;;;;6.80;2.40;;;9.80;58.30;;;;;;5227605;28;20534;-49
2024/01/29 12:46:08;;;;;;;3.40;2.50;;;9.70;58.60;;;;;;5228436;28;20428;-52
2024/01/29 12:48:40;;;;;;;4.07;2.57;;;9.70;58.60;;;;;;5224112;28;20528;-52
2024/01/29 12:51:12;;;;;;;2.70;2.40;;;9.70;58.80;;;;;;5245359;28;21016;-52
2024/01/29 12:53:55;;;;;;;4.50;2.30;;;9.60;58.60;;;;;;5226737;28;20460;-52
2024/01/29 12:56:27;;;;;;;4.70;2.63;;;9.60;58.90;;;;;;5236563;28;20497;-52
2024/01/29 12:58:58;;;;;;;2.53;2.30;;;9.60;58.80;;;;;;5224587;28;20430;-51
2024/01/29 13:01:29;;;;;;;3.00;2.70;;;9.80;58.00;;;;;;5233219;28;20440;-49
2024/01/29 13:03:59;;;;;;;3.63;2.03;;;9.80;58.10;;;;;;5235490;28;20558;-52
2024/01/29 13:06:30;;;;;;;2.83;2.63;;;9.70;58.80;;;;;;5244173;28;20285;-52
2024/01/29 13:09:00;;;;;;;4.73;2.37;;;9.60;58.10;;;;;;5223370;28;20186;-52
2024/01/29 13:11:31;;;;;;;8.27;2.60;;;9.50;58.60;;;;;;5239543;28;20624;-51
2024/01/29 13:14:02;;;;;;;4.77;2.57;;;9.50;58.70;;;;;;5224622;28;20239;-51